sensor_id;sensor_type;location;lat;lon;timestamp;temperature;humidity
72114;SHT31;59989;46.220;19.888;2023-09-07T00:01:26;16.03;74.20
72114;SHT31;59989;46.220;19.888;2023-09-07T00:04:29;15.89;74.54
72114;SHT31;59989;46.220;19.888;2023-09-07T00:07:32;15.82;74.59
72114;SHT31;59989;46.220;19.888;2023-09-07T00:10:34;15.73;75.17
72114;SHT31;59989;46.220;19.888;2023-09-07T00:13:38;15.63;75.37
72114;SHT31;59989;46.220;19.888;2023-09-07T00:16:40;15.56;75.77
72114;SHT31;59989;46.220;19.888;2023-09-07T00:19:43;15.50;76.47
72114;SHT31;59989;46.220;19.888;2023-09-07T00:22:46;15.42;76.55
72114;SHT31;59989;46.220;19.888;2023-09-07T00:25:49;15.36;76.47
72114;SHT31;59989;46.220;19.888;2023-09-07T00:28:51;15.32;76.23
72114;SHT31;59989;46.220;19.888;2023-09-07T00:31:54;15.38;76.23
72114;SHT31;59989;46.220;19.888;2023-09-07T00:34:57;15.42;76.71
72114;SHT31;59989;46.220;19.888;2023-09-07T00:37:59;15.60;76.62
72114;SHT31;59989;46.220;19.888;2023-09-07T00:41:02;15.53;76.52
72114;SHT31;59989;46.220;19.888;2023-09-07T00:44:04;15.39;76.02
72114;SHT31;59989;46.220;19.888;2023-09-07T00:47:07;15.46;76.14
72114;SHT31;59989;46.220;19.888;2023-09-07T00:50:10;15.69;75.14
72114;SHT31;59989;46.220;19.888;2023-09-07T00:53:16;15.86;74.58
72114;SHT31;59989;46.220;19.888;2023-09-07T00:56:20;15.93;74.08
72114;SHT31;59989;46.220;19.888;2023-09-07T00:59:23;15.91;74.31
72114;SHT31;59989;46.220;19.888;2023-09-07T01:02:25;15.82;75.29
72114;SHT31;59989;46.220;19.888;2023-09-07T01:05:51;15.64;75.60
72114;SHT31;59989;46.220;19.888;2023-09-07T01:08:55;15.73;74.96
72114;SHT31;59989;46.220;19.888;2023-09-07T01:12:01;15.80;74.60
72114;SHT31;59989;46.220;19.888;2023-09-07T01:15:04;15.80;74.43
72114;SHT31;59989;46.220;19.888;2023-09-07T01:18:07;15.82;74.41
72114;SHT31;59989;46.220;19.888;2023-09-07T01:21:27;15.82;74.61
72114;SHT31;59989;46.220;19.888;2023-09-07T01:24:31;15.70;74.63
72114;SHT31;59989;46.220;19.888;2023-09-07T01:27:35;15.70;74.76
72114;SHT31;59989;46.220;19.888;2023-09-07T01:30:39;15.64;74.91
72114;SHT31;59989;46.220;19.888;2023-09-07T01:33:43;15.63;75.84
72114;SHT31;59989;46.220;19.888;2023-09-07T01:36:45;15.49;75.46
72114;SHT31;59989;46.220;19.888;2023-09-07T01:39:48;15.29;75.91
72114;SHT31;59989;46.220;19.888;2023-09-07T01:42:51;15.35;76.08
72114;SHT31;59989;46.220;19.888;2023-09-07T01:45:53;15.28;76.55
72114;SHT31;59989;46.220;19.888;2023-09-07T01:48:56;15.11;76.97
72114;SHT31;59989;46.220;19.888;2023-09-07T01:51:59;15.31;76.16
72114;SHT31;59989;46.220;19.888;2023-09-07T01:55:01;15.18;76.78
72114;SHT31;59989;46.220;19.888;2023-09-07T01:58:04;15.06;77.09
72114;SHT31;59989;46.220;19.888;2023-09-07T02:01:06;15.15;76.63
72114;SHT31;59989;46.220;19.888;2023-09-07T02:04:09;15.21;76.59
72114;SHT31;59989;46.220;19.888;2023-09-07T02:07:12;15.16;76.64
72114;SHT31;59989;46.220;19.888;2023-09-07T02:10:16;15.19;76.41
72114;SHT31;59989;46.220;19.888;2023-09-07T02:13:18;15.22;76.33
72114;SHT31;59989;46.220;19.888;2023-09-07T02:16:21;15.19;76.46
72114;SHT31;59989;46.220;19.888;2023-09-07T02:19:23;15.15;76.42
72114;SHT31;59989;46.220;19.888;2023-09-07T02:22:26;15.14;76.57
72114;SHT31;59989;46.220;19.888;2023-09-07T02:25:29;15.16;76.47
72114;SHT31;59989;46.220;19.888;2023-09-07T02:28:33;15.14;76.47
72114;SHT31;59989;46.220;19.888;2023-09-07T02:31:35;15.09;76.68
72114;SHT31;59989;46.220;19.888;2023-09-07T02:34:38;15.08;76.87
72114;SHT31;59989;46.220;19.888;2023-09-07T02:37:41;15.01;77.36
72114;SHT31;59989;46.220;19.888;2023-09-07T02:40:43;14.89;77.85
72114;SHT31;59989;46.220;19.888;2023-09-07T02:43:47;14.78;78.46
72114;SHT31;59989;46.220;19.888;2023-09-07T02:46:49;14.68;78.31
72114;SHT31;59989;46.220;19.888;2023-09-07T02:49:52;14.78;78.14
72114;SHT31;59989;46.220;19.888;2023-09-07T02:52:55;14.84;77.95
72114;SHT31;59989;46.220;19.888;2023-09-07T02:55:58;14.78;78.76
72114;SHT31;59989;46.220;19.888;2023-09-07T02:59:00;14.60;78.86
72114;SHT31;59989;46.220;19.888;2023-09-07T03:02:03;14.61;78.77
72114;SHT31;59989;46.220;19.888;2023-09-07T03:05:06;14.77;78.17
72114;SHT31;59989;46.220;19.888;2023-09-07T03:08:09;14.83;78.16
72114;SHT31;59989;46.220;19.888;2023-09-07T03:11:12;14.74;78.63
72114;SHT31;59989;46.220;19.888;2023-09-07T03:14:15;14.67;78.56
72114;SHT31;59989;46.220;19.888;2023-09-07T03:17:18;14.71;78.57
72114;SHT31;59989;46.220;19.888;2023-09-07T03:20:23;14.56;78.72
72114;SHT31;59989;46.220;19.888;2023-09-07T03:23:27;14.46;79.23
72114;SHT31;59989;46.220;19.888;2023-09-07T03:26:30;14.39;79.71
72114;SHT31;59989;46.220;19.888;2023-09-07T03:29:33;14.44;79.65
72114;SHT31;59989;46.220;19.888;2023-09-07T03:32:39;14.36;79.92
72114;SHT31;59989;46.220;19.888;2023-09-07T03:35:41;14.29;80.24
72114;SHT31;59989;46.220;19.888;2023-09-07T03:38:44;14.34;79.95
72114;SHT31;59989;46.220;19.888;2023-09-07T03:41:48;14.39;79.93
72114;SHT31;59989;46.220;19.888;2023-09-07T03:44:51;14.37;79.96
72114;SHT31;59989;46.220;19.888;2023-09-07T03:47:53;14.30;80.24
72114;SHT31;59989;46.220;19.888;2023-09-07T03:50:56;14.25;80.33
72114;SHT31;59989;46.220;19.888;2023-09-07T03:53:58;14.13;80.63
72114;SHT31;59989;46.220;19.888;2023-09-07T03:57:01;13.97;80.92
72114;SHT31;59989;46.220;19.888;2023-09-07T04:00:07;13.89;81.75
72114;SHT31;59989;46.220;19.888;2023-09-07T04:03:19;13.79;81.82
72114;SHT31;59989;46.220;19.888;2023-09-07T04:06:22;13.68;82.82
72114;SHT31;59989;46.220;19.888;2023-09-07T04:09:26;13.58;82.37
72114;SHT31;59989;46.220;19.888;2023-09-07T04:12:29;13.48;82.45
72114;SHT31;59989;46.220;19.888;2023-09-07T04:15:34;13.47;82.48
72114;SHT31;59989;46.220;19.888;2023-09-07T04:18:36;13.39;82.46
72114;SHT31;59989;46.220;19.888;2023-09-07T04:21:39;13.36;83.75
72114;SHT31;59989;46.220;19.888;2023-09-07T04:24:42;13.43;83.77
72114;SHT31;59989;46.220;19.888;2023-09-07T04:27:45;13.50;83.48
72114;SHT31;59989;46.220;19.888;2023-09-07T04:30:47;13.46;82.72
72114;SHT31;59989;46.220;19.888;2023-09-07T04:33:50;13.71;82.86
72114;SHT31;59989;46.220;19.888;2023-09-07T04:36:52;13.83;82.45
72114;SHT31;59989;46.220;19.888;2023-09-07T04:39:55;13.89;82.29
72114;SHT31;59989;46.220;19.888;2023-09-07T04:42:59;13.95;82.15
72114;SHT31;59989;46.220;19.888;2023-09-07T04:46:01;14.02;82.00
72114;SHT31;59989;46.220;19.888;2023-09-07T04:49:05;14.08;81.87
72114;SHT31;59989;46.220;19.888;2023-09-07T04:52:08;14.15;81.57
72114;SHT31;59989;46.220;19.888;2023-09-07T04:55:11;14.19;81.53
72114;SHT31;59989;46.220;19.888;2023-09-07T04:58:14;14.28;81.16
72114;SHT31;59989;46.220;19.888;2023-09-07T05:01:17;14.33;81.03
72114;SHT31;59989;46.220;19.888;2023-09-07T05:04:20;14.36;80.91
72114;SHT31;59989;46.220;19.888;2023-09-07T05:07:22;14.43;80.89
72114;SHT31;59989;46.220;19.888;2023-09-07T05:10:25;14.46;80.77
72114;SHT31;59989;46.220;19.888;2023-09-07T05:13:28;14.55;80.11
72114;SHT31;59989;46.220;19.888;2023-09-07T05:16:31;14.55;80.90
72114;SHT31;59989;46.220;19.888;2023-09-07T05:19:34;14.66;80.56
72114;SHT31;59989;46.220;19.888;2023-09-07T05:22:37;14.68;80.17
72114;SHT31;59989;46.220;19.888;2023-09-07T05:25:46;14.71;80.07
72114;SHT31;59989;46.220;19.888;2023-09-07T05:28:51;14.85;79.91
72114;SHT31;59989;46.220;19.888;2023-09-07T05:31:53;14.99;79.89
72114;SHT31;59989;46.220;19.888;2023-09-07T05:34:56;15.09;79.39
72114;SHT31;59989;46.220;19.888;2023-09-07T05:37:59;15.15;79.34
72114;SHT31;59989;46.220;19.888;2023-09-07T05:41:01;15.21;79.37
72114;SHT31;59989;46.220;19.888;2023-09-07T05:44:04;15.31;79.04
72114;SHT31;59989;46.220;19.888;2023-09-07T05:47:07;15.47;78.79
72114;SHT31;59989;46.220;19.888;2023-09-07T05:50:10;15.55;78.83
72114;SHT31;59989;46.220;19.888;2023-09-07T05:53:12;15.63;78.25
72114;SHT31;59989;46.220;19.888;2023-09-07T05:56:15;15.87;77.73
72114;SHT31;59989;46.220;19.888;2023-09-07T05:59:18;15.96;77.79
72114;SHT31;59989;46.220;19.888;2023-09-07T06:02:22;16.07;77.27
72114;SHT31;59989;46.220;19.888;2023-09-07T06:05:24;16.21;77.40
72114;SHT31;59989;46.220;19.888;2023-09-07T06:08:27;16.31;77.21
72114;SHT31;59989;46.220;19.888;2023-09-07T06:11:30;16.45;76.48
72114;SHT31;59989;46.220;19.888;2023-09-07T06:14:35;16.56;76.50
72114;SHT31;59989;46.220;19.888;2023-09-07T06:17:38;16.68;76.08
72114;SHT31;59989;46.220;19.888;2023-09-07T06:20:41;16.93;75.15
72114;SHT31;59989;46.220;19.888;2023-09-07T06:23:43;16.99;74.89
72114;SHT31;59989;46.220;19.888;2023-09-07T06:26:46;17.09;74.98
72114;SHT31;59989;46.220;19.888;2023-09-07T06:29:49;17.21;74.78
72114;SHT31;59989;46.220;19.888;2023-09-07T06:32:51;17.37;74.10
72114;SHT31;59989;46.220;19.888;2023-09-07T06:35:56;17.58;74.15
72114;SHT31;59989;46.220;19.888;2023-09-07T06:39:03;17.74;72.68
72114;SHT31;59989;46.220;19.888;2023-09-07T06:42:07;17.92;72.62
72114;SHT31;59989;46.220;19.888;2023-09-07T06:45:16;18.23;72.00
72114;SHT31;59989;46.220;19.888;2023-09-07T06:48:19;18.29;71.67
72114;SHT31;59989;46.220;19.888;2023-09-07T06:51:22;18.51;71.17
72114;SHT31;59989;46.220;19.888;2023-09-07T06:54:25;18.78;70.30
72114;SHT31;59989;46.220;19.888;2023-09-07T06:57:27;18.89;69.88
72114;SHT31;59989;46.220;19.888;2023-09-07T07:00:30;19.29;69.49
72114;SHT31;59989;46.220;19.888;2023-09-07T07:03:33;19.56;68.88
72114;SHT31;59989;46.220;19.888;2023-09-07T07:06:37;19.80;67.91
72114;SHT31;59989;46.220;19.888;2023-09-07T07:09:39;20.01;67.09
72114;SHT31;59989;46.220;19.888;2023-09-07T07:12:42;20.35;66.43
72114;SHT31;59989;46.220;19.888;2023-09-07T07:15:45;20.65;65.58
72114;SHT31;59989;46.220;19.888;2023-09-07T07:18:47;21.10;64.31
72114;SHT31;59989;46.220;19.888;2023-09-07T07:21:51;21.35;63.24
72114;SHT31;59989;46.220;19.888;2023-09-07T07:24:53;21.54;61.95
72114;SHT31;59989;46.220;19.888;2023-09-07T07:27:56;21.79;62.12
72114;SHT31;59989;46.220;19.888;2023-09-07T07:31:07;22.21;60.64
72114;SHT31;59989;46.220;19.888;2023-09-07T07:34:11;22.50;60.29
72114;SHT31;59989;46.220;19.888;2023-09-07T07:42:12;23.18;58.70
72114;SHT31;59989;46.220;19.888;2023-09-07T07:45:16;23.30;57.81
72114;SHT31;59989;46.220;19.888;2023-09-07T07:48:22;23.77;56.71
72114;SHT31;59989;46.220;19.888;2023-09-07T07:51:25;23.94;56.84
72114;SHT31;59989;46.220;19.888;2023-09-07T07:54:30;23.71;55.70
72114;SHT31;59989;46.220;19.888;2023-09-07T07:57:35;24.16;56.21
72114;SHT31;59989;46.220;19.888;2023-09-07T08:00:38;24.29;55.80
72114;SHT31;59989;46.220;19.888;2023-09-07T08:03:43;24.15;55.64
72114;SHT31;59989;46.220;19.888;2023-09-07T08:06:46;24.51;55.07
72114;SHT31;59989;46.220;19.888;2023-09-07T08:09:49;24.67;55.10
72114;SHT31;59989;46.220;19.888;2023-09-07T08:12:56;25.03;53.78
72114;SHT31;59989;46.220;19.888;2023-09-07T08:16:03;25.00;53.50
72114;SHT31;59989;46.220;19.888;2023-09-07T08:19:06;25.46;52.40
72114;SHT31;59989;46.220;19.888;2023-09-07T08:22:09;25.82;52.29
72114;SHT31;59989;46.220;19.888;2023-09-07T08:25:13;26.26;51.39
72114;SHT31;59989;46.220;19.888;2023-09-07T08:28:16;26.27;50.81
72114;SHT31;59989;46.220;19.888;2023-09-07T08:31:20;26.41;51.35
72114;SHT31;59989;46.220;19.888;2023-09-07T08:34:32;26.62;49.51
72114;SHT31;59989;46.220;19.888;2023-09-07T08:38:32;26.62;50.14
72114;SHT31;59989;46.220;19.888;2023-09-07T08:41:42;26.69;48.71
72114;SHT31;59989;46.220;19.888;2023-09-07T08:45:03;26.71;50.24
72114;SHT31;59989;46.220;19.888;2023-09-07T08:48:10;26.93;48.95
72114;SHT31;59989;46.220;19.888;2023-09-07T08:51:15;27.16;50.00
72114;SHT31;59989;46.220;19.888;2023-09-07T08:54:19;26.85;48.20
72114;SHT31;59989;46.220;19.888;2023-09-07T08:57:21;27.17;48.21
72114;SHT31;59989;46.220;19.888;2023-09-07T09:00:24;27.43;48.38
72114;SHT31;59989;46.220;19.888;2023-09-07T09:03:27;27.67;47.41
72114;SHT31;59989;46.220;19.888;2023-09-07T09:06:31;28.01;47.74
72114;SHT31;59989;46.220;19.888;2023-09-07T09:09:33;28.53;46.05
72114;SHT31;59989;46.220;19.888;2023-09-07T09:12:44;28.13;44.55
72114;SHT31;59989;46.220;19.888;2023-09-07T09:15:47;28.38;44.18
72114;SHT31;59989;46.220;19.888;2023-09-07T09:18:52;28.21;43.72
72114;SHT31;59989;46.220;19.888;2023-09-07T09:21:55;27.97;43.61
72114;SHT31;59989;46.220;19.888;2023-09-07T09:25:03;28.64;43.20
72114;SHT31;59989;46.220;19.888;2023-09-07T09:28:09;29.31;41.31
72114;SHT31;59989;46.220;19.888;2023-09-07T09:31:12;29.28;41.56
72114;SHT31;59989;46.220;19.888;2023-09-07T09:34:15;29.72;40.95
72114;SHT31;59989;46.220;19.888;2023-09-07T09:37:18;29.96;40.60
72114;SHT31;59989;46.220;19.888;2023-09-07T09:40:21;29.96;39.01
72114;SHT31;59989;46.220;19.888;2023-09-07T09:43:26;29.86;40.73
72114;SHT31;59989;46.220;19.888;2023-09-07T09:46:31;30.38;39.37
72114;SHT31;59989;46.220;19.888;2023-09-07T09:49:34;30.03;39.09
72114;SHT31;59989;46.220;19.888;2023-09-07T09:52:38;30.92;38.11
72114;SHT31;59989;46.220;19.888;2023-09-07T09:55:42;31.40;37.55
72114;SHT31;59989;46.220;19.888;2023-09-07T09:58:44;30.75;37.87
72114;SHT31;59989;46.220;19.888;2023-09-07T10:01:49;30.81;38.18
72114;SHT31;59989;46.220;19.888;2023-09-07T10:04:56;31.66;36.52
72114;SHT31;59989;46.220;19.888;2023-09-07T10:08:08;31.12;36.58
72114;SHT31;59989;46.220;19.888;2023-09-07T10:11:11;31.34;36.15
72114;SHT31;59989;46.220;19.888;2023-09-07T10:14:13;31.94;36.25
72114;SHT31;59989;46.220;19.888;2023-09-07T10:17:23;33.24;34.29
72114;SHT31;59989;46.220;19.888;2023-09-07T10:20:25;32.35;34.91
72114;SHT31;59989;46.220;19.888;2023-09-07T10:23:57;31.41;35.49
72114;SHT31;59989;46.220;19.888;2023-09-07T10:27:04;31.63;35.01
72114;SHT31;59989;46.220;19.888;2023-09-07T10:30:10;31.73;35.10
72114;SHT31;59989;46.220;19.888;2023-09-07T10:33:21;32.08;34.82
72114;SHT31;59989;46.220;19.888;2023-09-07T10:36:27;31.73;34.45
72114;SHT31;59989;46.220;19.888;2023-09-07T10:39:31;32.14;35.21
72114;SHT31;59989;46.220;19.888;2023-09-07T10:42:35;32.15;34.94
72114;SHT31;59989;46.220;19.888;2023-09-07T10:45:38;31.57;35.35
72114;SHT31;59989;46.220;19.888;2023-09-07T10:48:42;31.75;34.47
72114;SHT31;59989;46.220;19.888;2023-09-07T10:51:46;30.90;36.04
72114;SHT31;59989;46.220;19.888;2023-09-07T10:54:58;31.71;35.57
72114;SHT31;59989;46.220;19.888;2023-09-07T10:58:00;31.77;35.49
72114;SHT31;59989;46.220;19.888;2023-09-07T11:01:03;32.26;33.53
72114;SHT31;59989;46.220;19.888;2023-09-07T11:04:06;32.08;33.77
72114;SHT31;59989;46.220;19.888;2023-09-07T11:07:11;32.08;32.99
72114;SHT31;59989;46.220;19.888;2023-09-07T11:10:14;33.66;32.41
72114;SHT31;59989;46.220;19.888;2023-09-07T11:13:16;32.88;32.89
72114;SHT31;59989;46.220;19.888;2023-09-07T11:16:19;33.85;32.02
72114;SHT31;59989;46.220;19.888;2023-09-07T11:19:22;33.75;31.89
72114;SHT31;59989;46.220;19.888;2023-09-07T11:22:25;33.69;31.25
72114;SHT31;59989;46.220;19.888;2023-09-07T11:25:38;34.30;30.87
72114;SHT31;59989;46.220;19.888;2023-09-07T11:28:41;33.73;31.73
72114;SHT31;59989;46.220;19.888;2023-09-07T11:31:44;33.69;31.21
72114;SHT31;59989;46.220;19.888;2023-09-07T11:34:51;34.57;30.49
72114;SHT31;59989;46.220;19.888;2023-09-07T11:38:00;32.86;32.17
72114;SHT31;59989;46.220;19.888;2023-09-07T11:41:03;33.70;31.82
72114;SHT31;59989;46.220;19.888;2023-09-07T11:44:06;34.65;30.91
72114;SHT31;59989;46.220;19.888;2023-09-07T11:47:09;34.81;30.86
72114;SHT31;59989;46.220;19.888;2023-09-07T11:50:12;35.83;28.78
72114;SHT31;59989;46.220;19.888;2023-09-07T11:53:14;36.11;29.13
72114;SHT31;59989;46.220;19.888;2023-09-07T11:56:17;36.52;28.13
72114;SHT31;59989;46.220;19.888;2023-09-07T11:59:19;34.68;30.02
72114;SHT31;59989;46.220;19.888;2023-09-07T12:02:22;35.03;29.82
72114;SHT31;59989;46.220;19.888;2023-09-07T12:05:25;34.78;29.81
72114;SHT31;59989;46.220;19.888;2023-09-07T12:08:27;35.73;29.32
72114;SHT31;59989;46.220;19.888;2023-09-07T12:11:30;35.21;29.37
72114;SHT31;59989;46.220;19.888;2023-09-07T12:14:33;35.91;28.86
72114;SHT31;59989;46.220;19.888;2023-09-07T12:17:36;37.41;27.13
72114;SHT31;59989;46.220;19.888;2023-09-07T12:20:38;34.94;28.99
72114;SHT31;59989;46.220;19.888;2023-09-07T12:23:41;37.30;26.61
72114;SHT31;59989;46.220;19.888;2023-09-07T12:26:43;38.23;25.86
72114;SHT31;59989;46.220;19.888;2023-09-07T12:29:46;38.23;26.36
72114;SHT31;59989;46.220;19.888;2023-09-07T12:32:48;38.26;26.06
72114;SHT31;59989;46.220;19.888;2023-09-07T12:35:51;39.56;24.39
72114;SHT31;59989;46.220;19.888;2023-09-07T12:38:54;41.00;24.28
72114;SHT31;59989;46.220;19.888;2023-09-07T12:41:56;41.57;23.76
72114;SHT31;59989;46.220;19.888;2023-09-07T12:44:58;41.51;23.99
72114;SHT31;59989;46.220;19.888;2023-09-07T12:48:01;38.71;25.44
72114;SHT31;59989;46.220;19.888;2023-09-07T12:51:04;39.70;24.59
72114;SHT31;59989;46.220;19.888;2023-09-07T12:54:07;37.65;27.24
72114;SHT31;59989;46.220;19.888;2023-09-07T12:57:09;37.95;27.01
72114;SHT31;59989;46.220;19.888;2023-09-07T13:00:12;39.29;26.37
72114;SHT31;59989;46.220;19.888;2023-09-07T13:03:15;39.59;24.99
72114;SHT31;59989;46.220;19.888;2023-09-07T13:06:19;38.90;25.90
72114;SHT31;59989;46.220;19.888;2023-09-07T13:09:21;37.98;26.55
72114;SHT31;59989;46.220;19.888;2023-09-07T13:12:24;38.05;26.52
72114;SHT31;59989;46.220;19.888;2023-09-07T13:15:26;36.15;27.29
72114;SHT31;59989;46.220;19.888;2023-09-07T13:18:29;39.38;24.92
72114;SHT31;59989;46.220;19.888;2023-09-07T13:21:31;41.23;23.57
72114;SHT31;59989;46.220;19.888;2023-09-07T13:24:34;40.84;23.36
72114;SHT31;59989;46.220;19.888;2023-09-07T13:27:36;40.74;23.75
72114;SHT31;59989;46.220;19.888;2023-09-07T13:30:39;40.49;24.34
72114;SHT31;59989;46.220;19.888;2023-09-07T13:33:42;38.04;26.13
72114;SHT31;59989;46.220;19.888;2023-09-07T13:36:44;42.56;22.87
72114;SHT31;59989;46.220;19.888;2023-09-07T13:39:47;39.35;24.79
72114;SHT31;59989;46.220;19.888;2023-09-07T13:42:50;36.44;27.07
72114;SHT31;59989;46.220;19.888;2023-09-07T13:45:53;35.40;28.53
72114;SHT31;59989;46.220;19.888;2023-09-07T13:48:55;34.24;29.31
72114;SHT31;59989;46.220;19.888;2023-09-07T13:51:58;34.00;30.16
72114;SHT31;59989;46.220;19.888;2023-09-07T13:55:01;34.80;29.38
72114;SHT31;59989;46.220;19.888;2023-09-07T13:58:03;34.19;30.00
72114;SHT31;59989;46.220;19.888;2023-09-07T14:01:07;33.76;30.22
72114;SHT31;59989;46.220;19.888;2023-09-07T14:04:10;32.94;31.21
72114;SHT31;59989;46.220;19.888;2023-09-07T14:07:12;33.61;30.47
72114;SHT31;59989;46.220;19.888;2023-09-07T14:10:15;35.09;28.71
72114;SHT31;59989;46.220;19.888;2023-09-07T14:13:18;35.88;27.96
72114;SHT31;59989;46.220;19.888;2023-09-07T14:16:21;36.27;27.63
72114;SHT31;59989;46.220;19.888;2023-09-07T14:19:24;35.49;28.15
72114;SHT31;59989;46.220;19.888;2023-09-07T14:22:29;35.90;27.93
72114;SHT31;59989;46.220;19.888;2023-09-07T14:25:31;36.52;27.55
72114;SHT31;59989;46.220;19.888;2023-09-07T14:28:34;36.55;27.18
72114;SHT31;59989;46.220;19.888;2023-09-07T14:31:37;38.15;25.82
72114;SHT31;59989;46.220;19.888;2023-09-07T14:34:40;39.22;25.05
72114;SHT31;59989;46.220;19.888;2023-09-07T14:37:43;42.42;22.23
72114;SHT31;59989;46.220;19.888;2023-09-07T14:40:45;39.22;24.97
72114;SHT31;59989;46.220;19.888;2023-09-07T14:43:50;38.52;25.38
72114;SHT31;59989;46.220;19.888;2023-09-07T14:46:54;39.19;24.65
72114;SHT31;59989;46.220;19.888;2023-09-07T14:49:56;38.59;25.26
72114;SHT31;59989;46.220;19.888;2023-09-07T14:52:59;38.32;25.28
72114;SHT31;59989;46.220;19.888;2023-09-07T14:56:01;37.88;25.73
72114;SHT31;59989;46.220;19.888;2023-09-07T14:59:04;39.52;24.38
72114;SHT31;59989;46.220;19.888;2023-09-07T15:02:07;39.55;24.44
72114;SHT31;59989;46.220;19.888;2023-09-07T15:05:09;38.93;24.71
72114;SHT31;59989;46.220;19.888;2023-09-07T15:08:12;37.79;25.83
72114;SHT31;59989;46.220;19.888;2023-09-07T15:11:14;38.75;25.27
72114;SHT31;59989;46.220;19.888;2023-09-07T15:14:17;37.35;26.30
72114;SHT31;59989;46.220;19.888;2023-09-07T15:17:19;35.67;27.63
72114;SHT31;59989;46.220;19.888;2023-09-07T15:20:22;36.23;27.30
72114;SHT31;59989;46.220;19.888;2023-09-07T15:23:25;35.02;28.43
72114;SHT31;59989;46.220;19.888;2023-09-07T15:26:40;33.73;29.74
72114;SHT31;59989;46.220;19.888;2023-09-07T15:29:43;31.00;34.31
72114;SHT31;59989;46.220;19.888;2023-09-07T15:32:46;30.03;35.13
72114;SHT31;59989;46.220;19.888;2023-09-07T15:35:48;29.59;35.59
72114;SHT31;59989;46.220;19.888;2023-09-07T15:38:51;29.63;35.93
72114;SHT31;59989;46.220;19.888;2023-09-07T15:41:53;29.08;37.12
72114;SHT31;59989;46.220;19.888;2023-09-07T15:44:56;29.07;36.69
72114;SHT31;59989;46.220;19.888;2023-09-07T15:47:59;28.94;36.95
72114;SHT31;59989;46.220;19.888;2023-09-07T15:51:02;28.69;37.37
72114;SHT31;59989;46.220;19.888;2023-09-07T15:54:05;28.50;36.87
72114;SHT31;59989;46.220;19.888;2023-09-07T15:57:07;28.39;37.35
72114;SHT31;59989;46.220;19.888;2023-09-07T16:00:10;28.36;37.78
72114;SHT31;59989;46.220;19.888;2023-09-07T16:03:16;28.18;38.10
72114;SHT31;59989;46.220;19.888;2023-09-07T16:06:18;28.08;38.66
72114;SHT31;59989;46.220;19.888;2023-09-07T16:09:21;28.00;39.68
72114;SHT31;59989;46.220;19.888;2023-09-07T16:12:24;27.94;39.83
72114;SHT31;59989;46.220;19.888;2023-09-07T16:15:27;27.85;40.95
72114;SHT31;59989;46.220;19.888;2023-09-07T16:18:30;27.68;41.54
72114;SHT31;59989;46.220;19.888;2023-09-07T16:21:33;27.58;42.19
72114;SHT31;59989;46.220;19.888;2023-09-07T16:24:35;27.49;43.29
72114;SHT31;59989;46.220;19.888;2023-09-07T16:27:38;27.30;41.92
72114;SHT31;59989;46.220;19.888;2023-09-07T16:30:43;27.06;43.45
72114;SHT31;59989;46.220;19.888;2023-09-07T16:33:45;26.93;42.90
72114;SHT31;59989;46.220;19.888;2023-09-07T16:36:48;26.76;46.24
72114;SHT31;59989;46.220;19.888;2023-09-07T16:39:54;26.55;43.91
72114;SHT31;59989;46.220;19.888;2023-09-07T16:42:56;26.44;45.57
72114;SHT31;59989;46.220;19.888;2023-09-07T16:46:03;26.30;47.26
72114;SHT31;59989;46.220;19.888;2023-09-07T16:49:09;26.14;46.82
72114;SHT31;59989;46.220;19.888;2023-09-07T16:52:12;25.97;47.62
72114;SHT31;59989;46.220;19.888;2023-09-07T16:55:14;25.86;49.05
72114;SHT31;59989;46.220;19.888;2023-09-07T16:58:17;25.70;49.45
72114;SHT31;59989;46.220;19.888;2023-09-07T17:01:21;25.46;49.25
72114;SHT31;59989;46.220;19.888;2023-09-07T17:04:26;25.25;49.51
72114;SHT31;59989;46.220;19.888;2023-09-07T17:07:32;25.07;49.62
72114;SHT31;59989;46.220;19.888;2023-09-07T17:10:35;24.91;51.37
72114;SHT31;59989;46.220;19.888;2023-09-07T17:13:39;24.76;51.01
72114;SHT31;59989;46.220;19.888;2023-09-07T17:16:57;24.57;51.82
72114;SHT31;59989;46.220;19.888;2023-09-07T17:19:59;24.39;51.84
72114;SHT31;59989;46.220;19.888;2023-09-07T17:23:03;24.24;52.78
72114;SHT31;59989;46.220;19.888;2023-09-07T17:26:05;24.09;52.56
72114;SHT31;59989;46.220;19.888;2023-09-07T17:29:08;23.95;53.04
72114;SHT31;59989;46.220;19.888;2023-09-07T17:32:12;23.82;52.83
72114;SHT31;59989;46.220;19.888;2023-09-07T17:35:14;23.67;54.02
72114;SHT31;59989;46.220;19.888;2023-09-07T17:38:17;23.51;54.27
72114;SHT31;59989;46.220;19.888;2023-09-07T17:41:19;23.42;54.50
72114;SHT31;59989;46.220;19.888;2023-09-07T17:44:22;23.30;55.18
72114;SHT31;59989;46.220;19.888;2023-09-07T17:47:24;23.16;55.41
72114;SHT31;59989;46.220;19.888;2023-09-07T17:50:27;23.06;56.15
72114;SHT31;59989;46.220;19.888;2023-09-07T17:53:29;22.98;56.34
72114;SHT31;59989;46.220;19.888;2023-09-07T17:56:32;22.91;56.43
72114;SHT31;59989;46.220;19.888;2023-09-07T17:59:34;22.84;56.61
72114;SHT31;59989;46.220;19.888;2023-09-07T18:02:37;22.71;57.34
72114;SHT31;59989;46.220;19.888;2023-09-07T18:05:42;22.60;57.39
72114;SHT31;59989;46.220;19.888;2023-09-07T18:08:45;22.52;58.09
72114;SHT31;59989;46.220;19.888;2023-09-07T18:11:47;22.41;57.80
72114;SHT31;59989;46.220;19.888;2023-09-07T18:14:50;22.40;56.55
72114;SHT31;59989;46.220;19.888;2023-09-07T18:17:53;22.52;56.49
72114;SHT31;59989;46.220;19.888;2023-09-07T18:20:55;22.71;56.27
72114;SHT31;59989;46.220;19.888;2023-09-07T18:23:58;22.62;58.02
72114;SHT31;59989;46.220;19.888;2023-09-07T18:27:00;22.65;56.12
72114;SHT31;59989;46.220;19.888;2023-09-07T18:30:03;22.60;57.40
72114;SHT31;59989;46.220;19.888;2023-09-07T18:33:09;22.47;57.60
72114;SHT31;59989;46.220;19.888;2023-09-07T18:36:12;22.33;58.37
72114;SHT31;59989;46.220;19.888;2023-09-07T18:39:14;22.18;58.36
72114;SHT31;59989;46.220;19.888;2023-09-07T18:42:17;22.06;57.76
72114;SHT31;59989;46.220;19.888;2023-09-07T18:45:20;21.93;58.20
72114;SHT31;59989;46.220;19.888;2023-09-07T18:48:23;21.79;58.16
72114;SHT31;59989;46.220;19.888;2023-09-07T18:51:26;21.71;58.53
72114;SHT31;59989;46.220;19.888;2023-09-07T18:54:28;21.61;59.56
72114;SHT31;59989;46.220;19.888;2023-09-07T18:57:31;21.51;59.64
72114;SHT31;59989;46.220;19.888;2023-09-07T19:00:34;21.38;59.45
72114;SHT31;59989;46.220;19.888;2023-09-07T19:03:37;21.24;60.93
72114;SHT31;59989;46.220;19.888;2023-09-07T19:06:40;21.14;61.22